createdAt,value
2019-05-17T00:02:09.700Z,44.90
2019-05-17T00:04:42.727Z,45.20
2019-05-17T00:07:09.205Z,45.80
2019-05-17T00:09:37.370Z,45.60
2019-05-17T00:12:10.927Z,45.50
2019-05-17T00:14:37.292Z,45.50
2019-05-17T00:17:10.361Z,45.50
2019-05-17T00:19:50.314Z,45.40
2019-05-17T00:22:16.876Z,45.40
2019-05-17T00:24:43.277Z,45.40
2019-05-17T00:27:17.201Z,45.50
2019-05-17T00:29:43.677Z,45.60
2019-05-17T00:32:10.021Z,45.50
2019-05-17T00:34:43.050Z,45.80
2019-05-17T00:37:09.532Z,46.00
2019-05-17T00:39:42.723Z,45.80
2019-05-17T00:42:17.084Z,45.90
2019-05-17T00:44:50.510Z,45.90
2019-05-17T00:47:17.194Z,45.80
2019-05-17T00:49:50.516Z,45.90
2019-05-17T00:52:16.964Z,45.90
2019-05-17T00:54:49.774Z,47.70
2019-05-17T00:57:22.939Z,47.20
2019-05-17T00:59:56.579Z,46.80
2019-05-17T01:02:22.986Z,46.60
2019-05-17T01:04:49.356Z,46.60
2019-05-17T01:07:22.538Z,46.50
2019-05-17T01:09:48.874Z,46.40
2019-05-17T01:12:16.444Z,47.10
2019-05-17T01:14:49.342Z,46.90
2019-05-17T01:17:22.179Z,46.80
2019-05-17T01:19:48.538Z,46.80
2019-05-17T01:22:21.713Z,46.80
2019-05-17T01:24:47.967Z,46.60
2019-05-17T01:27:14.433Z,46.90
2019-05-17T01:29:48.005Z,46.80
2019-05-17T01:32:14.268Z,46.70
2019-05-17T01:34:47.549Z,46.70
2019-05-17T01:37:13.817Z,46.80
2019-05-17T01:39:46.877Z,47.00
2019-05-17T01:42:13.317Z,47.00
2019-05-17T01:44:39.664Z,47.10
2019-05-17T01:47:13.002Z,47.10
2019-05-17T01:49:39.465Z,47.10
2019-05-17T01:52:07.514Z,47.10
2019-05-17T01:54:47.539Z,47.30
2019-05-17T01:57:14.008Z,48.20
2019-05-17T01:59:40.351Z,47.70
2019-05-17T02:02:16.421Z,47.70
2019-05-17T02:04:42.800Z,47.80
2019-05-17T02:07:17.266Z,48.10
2019-05-17T02:09:43.705Z,47.90
2019-05-17T02:12:17.377Z,47.90
2019-05-17T02:14:43.799Z,48.10
2019-05-17T02:17:17.403Z,48.10
2019-05-17T02:19:57.382Z,48.10
2019-05-17T02:22:23.740Z,47.90
2019-05-17T02:24:50.132Z,48.20
2019-05-17T02:27:25.386Z,48.20
2019-05-17T02:29:52.356Z,48.10
2019-05-17T02:32:25.487Z,48.20
2019-05-17T02:34:53.079Z,48.40
2019-05-17T02:37:22.926Z,48.30
2019-05-17T02:40:02.467Z,48.30
2019-05-17T02:42:34.767Z,48.60
2019-05-17T02:45:03.077Z,49.40
2019-05-17T02:47:36.667Z,48.90
2019-05-17T02:50:12.898Z,48.70
2019-05-17T02:52:43.054Z,48.80
2019-05-17T02:55:07.888Z,48.70
2019-05-17T02:57:43.353Z,48.80
2019-05-17T03:00:08.896Z,48.80
2019-05-17T03:02:35.334Z,48.70
2019-05-17T03:05:12.830Z,48.90
2019-05-17T03:07:38.361Z,48.90
2019-05-17T03:10:22.073Z,49.90
2019-05-17T03:12:39.364Z,49.50
2019-05-17T03:15:13.091Z,49.60
2019-05-17T03:17:46.606Z,50.50
2019-05-17T03:20:23.083Z,50.00
2019-05-17T03:22:48.491Z,50.60
2019-05-17T03:25:14.836Z,50.80
2019-05-17T03:27:47.918Z,50.30
2019-05-17T03:30:18.709Z,51.50
2019-05-17T03:32:56.463Z,50.40
2019-05-17T03:35:19.203Z,50.20
2019-05-17T03:37:45.489Z,50.20
2019-05-17T03:40:36.311Z,50.50
2019-05-17T03:42:54.150Z,51.20
2019-05-17T03:45:26.745Z,50.70
2019-05-17T03:47:53.430Z,50.70
2019-05-17T03:50:22.507Z,51.50
2019-05-17T03:52:54.418Z,51.10
2019-05-17T03:55:23.221Z,51.10
2019-05-17T03:57:48.817Z,51.30
2019-05-17T04:00:28.823Z,51.20
2019-05-17T04:02:55.179Z,51.40
2019-05-17T04:05:27.735Z,51.20
2019-05-17T04:07:54.025Z,51.80
2019-05-17T04:10:22.810Z,52.00
2019-05-17T04:12:55.235Z,52.70
2019-05-17T04:15:28.531Z,52.30
2019-05-17T04:18:04.163Z,52.20
2019-05-17T04:20:43.466Z,52.00
2019-05-17T04:23:12.506Z,51.80
2019-05-17T04:25:44.201Z,51.60
2019-05-17T04:28:17.067Z,51.70
2019-05-17T04:30:43.582Z,51.70
2019-05-17T04:33:12.868Z,52.20
2019-05-17T04:35:44.329Z,52.10
2019-05-17T04:38:12.764Z,52.50
2019-05-17T04:40:54.126Z,52.50
2019-05-17T04:43:23.086Z,53.30
2019-05-17T04:45:55.152Z,52.90
2019-05-17T04:48:23.314Z,53.10
2019-05-17T04:50:53.018Z,53.00
2019-05-17T04:53:24.342Z,53.20
2019-05-17T04:55:57.498Z,54.30
2019-05-17T04:58:23.746Z,53.80
2019-05-17T05:00:56.411Z,54.10
2019-05-17T05:03:23.253Z,53.90
2019-05-17T05:05:53.177Z,54.20
2019-05-17T05:08:32.997Z,54.30
2019-05-17T05:10:58.627Z,54.70
2019-05-17T05:13:33.317Z,54.90
2019-05-17T05:15:59.701Z,55.60
2019-05-17T05:18:45.996Z,55.40
2019-05-17T05:21:12.407Z,55.60
2019-05-17T05:23:44.890Z,55.30
2019-05-17T05:26:12.034Z,56.00
2019-05-17T05:28:44.950Z,55.80
2019-05-17T05:31:17.852Z,56.10
2019-05-17T05:33:52.249Z,56.30
2019-05-17T05:36:25.349Z,55.90
2019-05-17T05:38:51.673Z,55.90
2019-05-17T05:41:18.008Z,55.70
2019-05-17T05:43:52.587Z,55.60
2019-05-17T05:46:19.181Z,55.50
2019-05-17T05:48:52.277Z,55.90
2019-05-17T05:51:25.369Z,55.80
2019-05-17T05:53:58.391Z,55.60
2019-05-17T05:56:32.676Z,55.90
2019-05-17T05:58:59.103Z,55.90
2019-05-17T06:01:38.135Z,55.90
2019-05-17T06:04:04.587Z,55.90
2019-05-17T06:06:37.196Z,55.70
2019-05-17T06:09:13.456Z,56.10
2019-05-17T06:11:41.644Z,56.10
2019-05-17T06:14:14.427Z,56.00
2019-05-17T06:16:47.857Z,56.30
2019-05-17T06:19:34.282Z,56.10
2019-05-17T06:22:02.552Z,56.10
2019-05-17T06:24:28.584Z,56.50
2019-05-17T06:27:01.980Z,56.10
2019-05-17T06:29:28.473Z,56.00
2019-05-17T06:32:02.594Z,55.70
2019-05-17T06:34:29.072Z,55.70
2019-05-17T06:37:02.483Z,55.50
2019-05-17T06:39:35.718Z,55.50
2019-05-17T06:42:08.742Z,56.30
2019-05-17T06:44:35.189Z,56.10
2019-05-17T06:47:15.148Z,55.90
2019-05-17T06:49:42.417Z,55.50
2019-05-17T06:52:15.111Z,55.50
2019-05-17T06:54:48.244Z,55.40
2019-05-17T06:57:28.549Z,55.40
2019-05-17T06:59:54.917Z,55.10
2019-05-17T07:02:27.710Z,55.50
2019-05-17T07:04:55.955Z,56.10
2019-05-17T07:07:32.228Z,56.00
2019-05-17T07:10:00.598Z,56.00
2019-05-17T07:12:54.467Z,56.40
2019-05-17T07:15:16.523Z,56.40
2019-05-17T07:17:50.448Z,56.40
2019-05-17T07:20:23.718Z,56.10
2019-05-17T07:22:50.713Z,56.20
2019-05-17T07:25:23.698Z,56.10
2019-05-17T07:27:50.389Z,56.90
2019-05-17T07:30:24.928Z,56.10
2019-05-17T07:33:00.202Z,55.90
2019-05-17T07:35:33.126Z,56.40
2019-05-17T07:37:59.653Z,56.10
2019-05-17T07:40:32.433Z,55.90
2019-05-17T07:43:07.881Z,55.60
2019-05-17T07:45:40.588Z,55.60
2019-05-17T07:48:09.550Z,55.50
2019-05-17T07:50:42.279Z,55.60
2019-05-17T07:53:10.365Z,55.80
2019-05-17T07:55:36.848Z,55.60
2019-05-17T07:58:10.376Z,55.70
2019-05-17T08:00:43.635Z,55.70
2019-05-17T08:03:12.666Z,55.50
2019-05-17T08:05:44.917Z,55.40
2019-05-17T08:08:11.176Z,55.50
2019-05-17T08:10:44.069Z,55.50
2019-05-17T08:13:27.441Z,55.40
2019-05-17T08:15:45.280Z,55.30
2019-05-17T08:18:11.562Z,55.30
2019-05-17T08:20:44.455Z,55.10
2019-05-17T08:23:19.884Z,55.20
2019-05-17T08:25:55.704Z,55.40
2019-05-17T08:28:27.269Z,55.30
2019-05-17T08:30:53.600Z,55.40
2019-05-17T08:33:19.858Z,55.30
2019-05-17T08:35:52.438Z,55.70
2019-05-17T08:38:25.570Z,55.70
2019-05-17T08:40:51.960Z,55.70
2019-05-17T08:43:38.164Z,55.50
2019-05-17T08:45:52.969Z,55.60
2019-05-17T08:48:25.401Z,55.50
2019-05-17T08:51:00.138Z,55.50
2019-05-17T08:53:33.043Z,55.50
2019-05-17T08:56:00.993Z,55.40
2019-05-17T08:58:34.500Z,55.40
2019-05-17T09:01:00.776Z,55.40
2019-05-17T09:03:33.872Z,55.50
2019-05-17T09:06:02.244Z,55.50
2019-05-17T09:08:29.848Z,55.60
2019-05-17T09:11:02.341Z,55.60
2019-05-17T09:13:29.834Z,55.70
2019-05-17T09:16:03.833Z,55.70
2019-05-17T09:18:39.271Z,55.60
2019-05-17T09:21:18.409Z,55.60
2019-05-17T09:23:59.575Z,55.90
2019-05-17T09:26:25.814Z,55.70
2019-05-17T09:29:01.256Z,55.80
2019-05-17T09:31:33.309Z,56.00
2019-05-17T09:34:06.472Z,55.90
2019-05-17T09:36:32.918Z,56.00
2019-05-17T09:39:05.838Z,56.10
2019-05-17T09:41:32.089Z,56.10
2019-05-17T09:44:12.887Z,56.20
2019-05-17T09:46:33.496Z,56.60
2019-05-17T09:49:06.596Z,56.70
2019-05-17T09:51:32.945Z,56.80
2019-05-17T09:54:06.002Z,56.90
2019-05-17T09:56:39.475Z,56.90
2019-05-17T09:59:06.232Z,56.90
2019-05-17T10:01:39.734Z,57.10
2019-05-17T10:04:13.712Z,57.10
2019-05-17T10:06:46.944Z,57.20
2019-05-17T10:09:14.495Z,57.50
2019-05-17T10:11:49.303Z,58.40
2019-05-17T10:14:25.757Z,59.30
2019-05-17T10:16:43.631Z,59.50
2019-05-17T10:19:24.106Z,59.60
2019-05-17T10:21:56.563Z,59.60
2019-05-17T10:24:38.134Z,59.30
2019-05-17T10:26:59.511Z,58.80
2019-05-17T10:29:32.840Z,57.20
2019-05-17T10:31:59.865Z,56.50
2019-05-17T10:34:32.993Z,56.00
2019-05-17T10:37:06.058Z,55.30
2019-05-17T10:39:41.497Z,54.50
2019-05-17T10:42:14.251Z,54.20
2019-05-17T10:44:48.052Z,54.10
2019-05-17T10:47:16.024Z,53.50
2019-05-17T10:49:49.627Z,54.10
2019-05-17T10:52:16.056Z,56.00
2019-05-17T10:54:42.305Z,56.30
2019-05-17T10:57:14.882Z,57.30
2019-05-17T11:00:07.258Z,57.30
2019-05-17T11:02:47.916Z,55.90
2019-05-17T11:05:15.856Z,55.50
2019-05-17T11:07:50.434Z,53.40
2019-05-17T11:10:19.287Z,52.70
2019-05-17T11:12:51.837Z,51.30
2019-05-17T11:15:24.313Z,51.00
2019-05-17T11:17:50.561Z,49.10
2019-05-17T11:20:23.885Z,48.40
2019-05-17T11:22:50.339Z,46.70
2019-05-17T11:25:16.797Z,46.60
2019-05-17T11:27:50.238Z,45.60
2019-05-17T11:30:23.419Z,45.00
2019-05-17T11:32:49.764Z,44.90
2019-05-17T11:35:24.669Z,43.50
2019-05-17T11:37:58.033Z,42.70
2019-05-17T11:43:06.677Z,42.40
2019-05-17T11:45:33.187Z,42.10
2019-05-17T11:48:06.216Z,41.60
2019-05-17T11:50:32.554Z,41.00
2019-05-17T11:52:58.808Z,40.80
2019-05-17T11:55:38.661Z,40.40
2019-05-17T11:58:04.899Z,39.60
2019-05-17T12:00:37.945Z,39.50
2019-05-17T12:03:04.295Z,39.70
2019-05-17T12:05:30.732Z,38.60
2019-05-17T12:08:03.453Z,38.90
2019-05-17T12:10:30.246Z,39.20
2019-05-17T12:13:03.700Z,39.20
2019-05-17T12:15:44.825Z,38.80
2019-05-17T12:18:04.595Z,38.80
2019-05-17T12:20:38.026Z,38.20
2019-05-17T12:23:04.743Z,38.00
2019-05-17T12:25:37.482Z,38.50
2019-05-17T12:28:03.910Z,37.30
2019-05-17T12:30:30.263Z,36.80
2019-05-17T12:33:03.755Z,36.60
2019-05-17T12:35:30.103Z,36.50
2019-05-17T12:37:56.322Z,36.70
2019-05-17T12:40:29.274Z,35.30
2019-05-17T12:43:02.545Z,35.00
2019-05-17T12:45:41.796Z,35.30
2019-05-17T12:48:08.281Z,34.40
2019-05-17T12:50:40.807Z,34.50
2019-05-17T12:53:07.184Z,35.00
2019-05-17T12:55:40.244Z,35.10
2019-05-17T12:58:13.461Z,35.60
2019-05-17T13:00:39.912Z,35.30
2019-05-17T13:03:19.963Z,34.70
2019-05-17T13:05:53.181Z,35.00
2019-05-17T13:08:19.449Z,34.80
2019-05-17T13:10:52.267Z,35.30
2019-05-17T13:13:18.504Z,35.80
2019-05-17T13:15:51.191Z,36.00
2019-05-17T13:18:17.642Z,36.30
2019-05-17T13:20:50.387Z,36.60
2019-05-17T13:23:23.346Z,36.80
2019-05-17T13:25:49.687Z,37.10
2019-05-17T13:28:16.051Z,36.60
2019-05-17T13:30:48.469Z,37.10
2019-05-17T13:33:14.942Z,37.60
2019-05-17T13:35:47.470Z,37.60
2019-05-17T13:38:13.747Z,37.60
2019-05-17T13:40:46.944Z,37.60
2019-05-17T13:43:20.184Z,37.50
2019-05-17T13:45:53.220Z,37.60
2019-05-17T13:48:25.756Z,37.50
2019-05-17T13:50:58.478Z,37.70
2019-05-17T13:53:30.969Z,37.70
2019-05-17T13:56:04.166Z,37.60
2019-05-17T13:58:30.522Z,37.40
2019-05-17T14:01:03.521Z,37.40
2019-05-17T14:03:29.923Z,37.70
2019-05-17T14:06:02.801Z,38.20
2019-05-17T14:08:35.396Z,38.30
2019-05-17T14:11:01.924Z,38.60
2019-05-17T14:13:34.728Z,38.50
2019-05-17T14:16:00.959Z,38.50
2019-05-17T14:18:33.768Z,38.50
2019-05-17T14:21:08.245Z,38.40
2019-05-17T14:23:41.349Z,38.30
2019-05-17T14:26:07.750Z,38.40
2019-05-17T14:28:40.846Z,38.60
2019-05-17T14:31:07.336Z,38.80
2019-05-17T14:33:40.008Z,38.50
2019-05-17T14:36:13.030Z,38.60
2019-05-17T14:38:46.135Z,38.60
2019-05-17T14:41:12.505Z,38.70
2019-05-17T14:43:52.520Z,38.90
2019-05-17T14:46:31.833Z,38.90
2019-05-17T14:49:11.004Z,39.30
2019-05-17T14:51:37.286Z,39.20
2019-05-17T14:54:03.639Z,39.10
2019-05-17T14:56:36.745Z,39.00
2019-05-17T14:59:03.086Z,39.20
2019-05-17T15:01:32.684Z,39.40
2019-05-17T15:04:04.028Z,39.60
2019-05-17T15:06:30.373Z,39.90
2019-05-17T15:08:57.018Z,40.10
2019-05-17T15:11:29.769Z,40.20
2019-05-17T15:14:22.990Z,40.50
2019-05-17T15:16:56.244Z,40.60
2019-05-17T15:19:29.303Z,40.90
2019-05-17T15:22:02.785Z,41.00
2019-05-17T15:24:35.658Z,40.90
2019-05-17T15:27:05.986Z,40.70
2019-05-17T15:29:36.225Z,40.50
2019-05-17T15:32:02.706Z,40.50
2019-05-17T15:34:29.005Z,40.60
2019-05-17T15:37:08.492Z,40.60
2019-05-17T15:39:34.926Z,40.90
2019-05-17T15:42:01.415Z,40.80
2019-05-17T15:44:34.650Z,41.40
2019-05-17T15:47:01.083Z,41.30
2019-05-17T15:49:33.607Z,41.50
2019-05-17T15:51:59.956Z,41.60
2019-05-17T15:54:26.200Z,41.60
2019-05-17T15:56:58.998Z,41.50
2019-05-17T15:59:32.332Z,41.70
2019-05-17T16:01:58.581Z,41.70
2019-05-17T16:04:31.794Z,41.80
2019-05-17T16:07:04.840Z,42.00
2019-05-17T16:09:37.428Z,42.00
2019-05-17T16:12:10.079Z,42.10
2019-05-17T16:14:42.631Z,42.00
2019-05-17T16:17:21.646Z,42.20
2019-05-17T16:19:47.949Z,42.20
2019-05-17T16:22:14.403Z,42.40
2019-05-17T16:24:47.274Z,42.40
2019-05-17T16:27:13.602Z,42.50
2019-05-17T16:29:40.069Z,42.60
2019-05-17T16:32:12.817Z,42.60
2019-05-17T16:34:45.774Z,42.70
2019-05-17T16:37:12.399Z,42.80
2019-05-17T16:39:38.852Z,42.90
2019-05-17T16:42:12.326Z,42.80
2019-05-17T16:44:48.570Z,43.00
2019-05-17T16:47:14.838Z,43.00
2019-05-17T16:49:47.967Z,43.10
2019-05-17T16:52:20.785Z,43.30
2019-05-17T16:54:47.295Z,43.20
2019-05-17T16:57:19.907Z,43.30
2019-05-17T16:59:52.588Z,43.30
2019-05-17T17:02:19.056Z,43.20
2019-05-17T17:04:58.907Z,44.10
2019-05-17T17:07:25.161Z,43.40
2019-05-17T17:10:04.968Z,43.50
2019-05-17T17:12:31.416Z,43.50
2019-05-17T17:15:07.613Z,43.50
2019-05-17T17:17:47.061Z,43.80
2019-05-17T17:20:13.755Z,43.80
2019-05-17T17:22:47.170Z,43.90
2019-05-17T17:25:13.762Z,44.10
2019-05-17T17:27:40.238Z,44.00
2019-05-17T17:30:15.338Z,44.10
2019-05-17T17:32:48.665Z,44.30
2019-05-17T17:35:42.906Z,44.30
2019-05-17T17:38:15.551Z,44.20
2019-05-17T17:40:48.682Z,44.30
2019-05-17T17:43:15.631Z,44.40
2019-05-17T17:45:48.828Z,44.50
2019-05-17T17:48:15.194Z,44.40
2019-05-17T17:50:48.798Z,44.70
2019-05-17T17:53:15.055Z,44.70
2019-05-17T17:55:48.010Z,44.80
2019-05-17T17:58:21.346Z,44.90
2019-05-17T18:00:48.207Z,45.30
2019-05-17T18:03:20.621Z,45.60
2019-05-17T18:05:46.974Z,45.50
2019-05-17T18:08:13.648Z,45.90
2019-05-17T18:10:53.319Z,46.10
2019-05-17T18:13:19.669Z,46.20
2019-05-17T18:15:59.796Z,46.80
2019-05-17T18:18:39.178Z,46.50
2019-05-17T18:21:05.631Z,46.40
2019-05-17T18:23:32.226Z,46.50
2019-05-17T18:26:05.597Z,46.60
2019-05-17T18:28:38.759Z,47.10
2019-05-17T18:31:15.066Z,46.90
2019-05-17T18:33:41.612Z,46.90
2019-05-17T18:36:08.484Z,46.90
2019-05-17T18:38:42.608Z,46.90
2019-05-17T18:41:08.969Z,47.00
2019-05-17T18:43:41.424Z,46.90
2019-05-17T18:46:07.807Z,46.80
2019-05-17T18:48:41.240Z,47.00
2019-05-17T18:51:07.640Z,47.00
2019-05-17T18:53:40.543Z,47.20
2019-05-17T18:56:14.109Z,47.50
2019-05-17T18:58:40.532Z,47.50
2019-05-17T19:01:14.073Z,47.40
2019-05-17T19:03:47.459Z,47.50
2019-05-17T19:06:13.962Z,47.40
2019-05-17T19:08:46.981Z,47.50
2019-05-17T19:11:20.133Z,47.70
2019-05-17T19:13:53.045Z,47.80
2019-05-17T19:16:26.590Z,47.70
2019-05-17T19:19:06.627Z,48.10
2019-05-17T19:21:32.890Z,48.10
2019-05-17T19:24:06.205Z,48.30
2019-05-17T19:26:39.528Z,48.40
2019-05-17T19:29:06.050Z,48.40
2019-05-17T19:31:32.487Z,48.60
2019-05-17T19:34:05.785Z,48.40
2019-05-17T19:36:41.596Z,48.40
2019-05-17T19:39:14.271Z,48.60
2019-05-17T19:41:47.611Z,48.70
2019-05-17T19:44:13.986Z,48.40
2019-05-17T19:46:47.085Z,48.50
2019-05-17T19:49:20.038Z,48.60
2019-05-17T19:51:46.508Z,48.70
2019-05-17T19:54:19.941Z,48.60
2019-05-17T19:56:46.307Z,48.90
2019-05-17T19:59:19.101Z,48.90
2019-05-17T20:01:45.378Z,49.10
2019-05-17T20:04:11.863Z,49.00
2019-05-17T20:06:44.260Z,49.70
2019-05-17T20:09:10.502Z,49.30
2019-05-17T20:11:43.668Z,49.20
2019-05-17T20:14:19.630Z,49.20
2019-05-17T20:16:53.073Z,49.10
2019-05-17T20:19:26.497Z,49.10
2019-05-17T20:21:59.548Z,49.20
2019-05-17T20:24:38.959Z,49.10
2019-05-17T20:27:12.252Z,49.60
2019-05-17T20:29:38.594Z,49.80
2019-05-17T20:32:05.067Z,49.70
2019-05-17T20:34:39.459Z,49.70
2019-05-17T20:37:05.813Z,49.70
2019-05-17T20:39:38.686Z,49.70
2019-05-17T20:42:05.028Z,50.10
2019-05-17T20:44:37.947Z,50.00
2019-05-17T20:47:04.401Z,49.80
2019-05-17T20:49:37.100Z,49.90
2019-05-17T20:52:03.571Z,49.80
2019-05-17T20:54:36.338Z,50.00
2019-05-17T20:57:03.093Z,49.90
2019-05-17T20:59:35.765Z,50.00
2019-05-17T21:02:08.896Z,50.00
2019-05-17T21:04:35.247Z,49.90
2019-05-17T21:07:15.027Z,49.80
2019-05-17T21:09:41.246Z,49.60
2019-05-17T21:12:14.008Z,50.00
2019-05-17T21:14:40.466Z,50.20
2019-05-17T21:17:13.521Z,50.10
2019-05-17T21:19:52.587Z,49.90
2019-05-17T21:22:25.729Z,50.10
2019-05-17T21:24:52.101Z,50.00
2019-05-17T21:27:18.448Z,49.90
2019-05-17T21:29:50.977Z,50.20
2019-05-17T21:32:17.246Z,49.90
2019-05-17T21:34:43.499Z,50.20
2019-05-17T21:37:16.117Z,50.80
2019-05-17T21:39:42.371Z,50.60
2019-05-17T21:42:08.977Z,51.50
2019-05-17T21:44:41.404Z,50.90
2019-05-17T21:47:07.660Z,50.70
2019-05-17T21:49:33.915Z,50.80
2019-05-17T21:52:07.425Z,50.90
2019-05-17T21:54:33.802Z,51.10
2019-05-17T21:57:00.155Z,51.70
2019-05-17T21:59:33.467Z,51.60
2019-05-17T22:02:00.634Z,51.90
2019-05-17T22:04:40.090Z,51.80
2019-05-17T22:07:13.339Z,52.70
2019-05-17T22:09:39.670Z,52.30
2019-05-17T22:12:10.823Z,52.40
2019-05-17T22:14:44.074Z,52.70
2019-05-17T22:17:17.356Z,52.90
2019-05-17T22:19:50.597Z,53.00
2019-05-17T22:22:29.864Z,53.30
2019-05-17T22:24:56.111Z,53.30
2019-05-17T22:27:22.384Z,53.20
2019-05-17T22:29:55.145Z,53.70
2019-05-17T22:32:21.405Z,53.60
2019-05-17T22:34:47.664Z,53.50
2019-05-17T22:37:20.527Z,54.10
2019-05-17T22:39:46.875Z,54.30
2019-05-17T22:42:13.231Z,54.40
2019-05-17T22:44:45.762Z,54.10
2019-05-17T22:47:12.007Z,54.50
2019-05-17T22:49:38.295Z,54.70
2019-05-17T22:52:10.991Z,54.70
2019-05-17T22:54:37.243Z,55.10
2019-05-17T22:57:09.800Z,55.40
2019-05-17T22:59:42.230Z,55.50
2019-05-17T23:02:08.562Z,55.40
2019-05-17T23:04:34.799Z,55.30
2019-05-17T23:07:14.498Z,55.50
2019-05-17T23:09:47.814Z,55.90
2019-05-17T23:12:14.173Z,56.10
2019-05-17T23:14:40.515Z,56.30
2019-05-17T23:17:13.865Z,55.80
2019-05-17T23:19:53.211Z,55.60
2019-05-17T23:22:26.435Z,55.40
2019-05-17T23:24:52.787Z,55.30
2019-05-17T23:27:19.130Z,55.20
2019-05-17T23:29:51.575Z,55.30
2019-05-17T23:32:17.898Z,55.40
2019-05-17T23:34:44.256Z,55.30
2019-05-17T23:37:17.578Z,55.50
2019-05-17T23:39:43.831Z,55.80
2019-05-17T23:42:10.080Z,55.50
2019-05-17T23:44:49.317Z,55.50
2019-05-17T23:47:15.705Z,55.80
2019-05-17T23:49:49.134Z,55.70
2019-05-17T23:52:15.499Z,55.90
2019-05-17T23:54:48.308Z,55.90
2019-05-17T23:57:14.568Z,56.00
2019-05-17T23:59:47.596Z,56.20
